sensor_id;sensor_type;location;lat;lon;timestamp;P1;durP1;ratioP1;P2;durP2;ratioP2
16579;SDS011;8402;51.466;6.806;2022-10-16T00:01:20;5.70;;;3.80;;
16579;SDS011;8402;51.466;6.806;2022-10-16T00:03:51;10.23;;;3.70;;
16579;SDS011;8402;51.466;6.806;2022-10-16T00:06:20;6.00;;;3.80;;
16579;SDS011;8402;51.466;6.806;2022-10-16T00:08:49;10.43;;;4.10;;
16579;SDS011;8402;51.466;6.806;2022-10-16T00:11:17;6.53;;;3.83;;
16579;SDS011;8402;51.466;6.806;2022-10-16T00:13:47;9.23;;;4.00;;
16579;SDS011;8402;51.466;6.806;2022-10-16T00:16:17;5.73;;;3.73;;
16579;SDS011;8402;51.466;6.806;2022-10-16T00:18:45;5.90;;;3.97;;
16579;SDS011;8402;51.466;6.806;2022-10-16T00:21:16;8.27;;;3.87;;
16579;SDS011;8402;51.466;6.806;2022-10-16T00:23:46;6.47;;;3.57;;
16579;SDS011;8402;51.466;6.806;2022-10-16T00:26:14;9.07;;;3.77;;
16579;SDS011;8402;51.466;6.806;2022-10-16T00:28:45;11.50;;;4.00;;
16579;SDS011;8402;51.466;6.806;2022-10-16T00:31:13;5.47;;;3.87;;
16579;SDS011;8402;51.466;6.806;2022-10-16T00:33:41;8.43;;;3.70;;
16579;SDS011;8402;51.466;6.806;2022-10-16T00:36:10;5.30;;;3.87;;
16579;SDS011;8402;51.466;6.806;2022-10-16T00:38:42;8.17;;;4.20;;
16579;SDS011;8402;51.466;6.806;2022-10-16T00:41:10;5.60;;;3.70;;
16579;SDS011;8402;51.466;6.806;2022-10-16T00:43:40;8.10;;;4.33;;
16579;SDS011;8402;51.466;6.806;2022-10-16T00:46:11;5.40;;;3.93;;
16579;SDS011;8402;51.466;6.806;2022-10-16T00:48:43;13.13;;;3.90;;
16579;SDS011;8402;51.466;6.806;2022-10-16T00:51:15;7.80;;;4.37;;
16579;SDS011;8402;51.466;6.806;2022-10-16T00:53:47;9.93;;;4.30;;
16579;SDS011;8402;51.466;6.806;2022-10-16T00:56:16;10.50;;;4.57;;
16579;SDS011;8402;51.466;6.806;2022-10-16T00:58:44;11.37;;;4.40;;
16579;SDS011;8402;51.466;6.806;2022-10-16T01:01:12;5.90;;;3.63;;
16579;SDS011;8402;51.466;6.806;2022-10-16T01:03:40;5.63;;;3.80;;
16579;SDS011;8402;51.466;6.806;2022-10-16T01:06:11;10.57;;;4.23;;
16579;SDS011;8402;51.466;6.806;2022-10-16T01:11:44;6.30;;;3.97;;
16579;SDS011;8402;51.466;6.806;2022-10-16T01:14:19;9.53;;;4.37;;
16579;SDS011;8402;51.466;6.806;2022-10-16T01:16:53;8.57;;;4.37;;
16579;SDS011;8402;51.466;6.806;2022-10-16T01:19:26;7.37;;;4.23;;
16579;SDS011;8402;51.466;6.806;2022-10-16T01:22:07;10.20;;;5.50;;
16579;SDS011;8402;51.466;6.806;2022-10-16T01:24:39;8.33;;;5.00;;
16579;SDS011;8402;51.466;6.806;2022-10-16T01:27:10;8.17;;;4.87;;
16579;SDS011;8402;51.466;6.806;2022-10-16T01:29:42;8.57;;;4.77;;
16579;SDS011;8402;51.466;6.806;2022-10-16T01:32:18;9.43;;;5.37;;
16579;SDS011;8402;51.466;6.806;2022-10-16T01:34:49;10.27;;;5.03;;
16579;SDS011;8402;51.466;6.806;2022-10-16T01:37:22;13.80;;;4.93;;
16579;SDS011;8402;51.466;6.806;2022-10-16T01:39:59;9.17;;;5.00;;
16579;SDS011;8402;51.466;6.806;2022-10-16T01:42:33;12.63;;;4.87;;
16579;SDS011;8402;51.466;6.806;2022-10-16T01:45:03;9.13;;;4.37;;
16579;SDS011;8402;51.466;6.806;2022-10-16T01:47:34;9.17;;;4.60;;
16579;SDS011;8402;51.466;6.806;2022-10-16T01:50:04;6.90;;;4.30;;
16579;SDS011;8402;51.466;6.806;2022-10-16T01:52:34;7.13;;;4.00;;
16579;SDS011;8402;51.466;6.806;2022-10-16T01:55:06;10.80;;;4.33;;
16579;SDS011;8402;51.466;6.806;2022-10-16T01:57:38;10.90;;;3.67;;
16579;SDS011;8402;51.466;6.806;2022-10-16T02:00:11;7.30;;;4.07;;
16579;SDS011;8402;51.466;6.806;2022-10-16T02:02:41;8.87;;;4.33;;
16579;SDS011;8402;51.466;6.806;2022-10-16T02:05:14;8.10;;;4.13;;
16579;SDS011;8402;51.466;6.806;2022-10-16T02:07:46;7.63;;;4.40;;
16579;SDS011;8402;51.466;6.806;2022-10-16T02:10:14;9.63;;;4.50;;
16579;SDS011;8402;51.466;6.806;2022-10-16T02:12:45;9.30;;;4.60;;
16579;SDS011;8402;51.466;6.806;2022-10-16T02:15:17;9.27;;;4.17;;
16579;SDS011;8402;51.466;6.806;2022-10-16T02:17:45;6.30;;;3.97;;
16579;SDS011;8402;51.466;6.806;2022-10-16T02:20:13;6.37;;;3.67;;
16579;SDS011;8402;51.466;6.806;2022-10-16T02:22:42;3.43;;;2.60;;
16579;SDS011;8402;51.466;6.806;2022-10-16T02:25:15;8.80;;;3.10;;
16579;SDS011;8402;51.466;6.806;2022-10-16T02:27:49;4.07;;;2.50;;
16579;SDS011;8402;51.466;6.806;2022-10-16T02:30:24;4.27;;;2.40;;
16579;SDS011;8402;51.466;6.806;2022-10-16T02:32:56;3.77;;;2.40;;
16579;SDS011;8402;51.466;6.806;2022-10-16T02:35:27;9.90;;;2.47;;
16579;SDS011;8402;51.466;6.806;2022-10-16T02:37:57;6.17;;;2.60;;
16579;SDS011;8402;51.466;6.806;2022-10-16T02:40:26;5.20;;;2.30;;
16579;SDS011;8402;51.466;6.806;2022-10-16T02:42:55;7.07;;;2.20;;
16579;SDS011;8402;51.466;6.806;2022-10-16T02:45:23;7.77;;;2.50;;
16579;SDS011;8402;51.466;6.806;2022-10-16T02:47:51;3.37;;;2.00;;
16579;SDS011;8402;51.466;6.806;2022-10-16T02:50:19;5.07;;;2.27;;
16579;SDS011;8402;51.466;6.806;2022-10-16T02:52:47;3.90;;;1.90;;
16579;SDS011;8402;51.466;6.806;2022-10-16T02:55:15;5.93;;;2.20;;
16579;SDS011;8402;51.466;6.806;2022-10-16T02:57:43;4.60;;;2.17;;
16579;SDS011;8402;51.466;6.806;2022-10-16T03:00:13;3.23;;;2.10;;
16579;SDS011;8402;51.466;6.806;2022-10-16T03:02:42;4.83;;;2.20;;
16579;SDS011;8402;51.466;6.806;2022-10-16T03:05:10;8.93;;;2.00;;
16579;SDS011;8402;51.466;6.806;2022-10-16T03:07:38;3.87;;;2.43;;
16579;SDS011;8402;51.466;6.806;2022-10-16T03:10:06;3.43;;;2.30;;
16579;SDS011;8402;51.466;6.806;2022-10-16T03:12:35;3.07;;;1.63;;
16579;SDS011;8402;51.466;6.806;2022-10-16T03:15:03;6.47;;;2.10;;
16579;SDS011;8402;51.466;6.806;2022-10-16T03:17:32;3.23;;;2.13;;
16579;SDS011;8402;51.466;6.806;2022-10-16T03:20:00;3.33;;;2.30;;
16579;SDS011;8402;51.466;6.806;2022-10-16T03:22:28;4.87;;;1.93;;
16579;SDS011;8402;51.466;6.806;2022-10-16T03:24:56;4.30;;;2.30;;
16579;SDS011;8402;51.466;6.806;2022-10-16T03:27:24;3.37;;;2.20;;
16579;SDS011;8402;51.466;6.806;2022-10-16T03:29:52;4.73;;;1.93;;
16579;SDS011;8402;51.466;6.806;2022-10-16T03:32:20;5.03;;;1.70;;
16579;SDS011;8402;51.466;6.806;2022-10-16T03:34:49;3.30;;;1.53;;
16579;SDS011;8402;51.466;6.806;2022-10-16T03:37:19;3.83;;;1.80;;
16579;SDS011;8402;51.466;6.806;2022-10-16T03:39:47;6.23;;;1.90;;
16579;SDS011;8402;51.466;6.806;2022-10-16T03:42:15;5.70;;;2.00;;
16579;SDS011;8402;51.466;6.806;2022-10-16T03:44:42;6.50;;;2.73;;
16579;SDS011;8402;51.466;6.806;2022-10-16T03:47:10;2.70;;;1.87;;
16579;SDS011;8402;51.466;6.806;2022-10-16T03:49:38;3.43;;;2.00;;
16579;SDS011;8402;51.466;6.806;2022-10-16T03:52:07;4.27;;;1.70;;
16579;SDS011;8402;51.466;6.806;2022-10-16T03:54:35;5.03;;;2.47;;
16579;SDS011;8402;51.466;6.806;2022-10-16T03:57:03;2.60;;;1.80;;
16579;SDS011;8402;51.466;6.806;2022-10-16T03:59:31;4.87;;;2.00;;
16579;SDS011;8402;51.466;6.806;2022-10-16T04:01:58;3.20;;;1.90;;
16579;SDS011;8402;51.466;6.806;2022-10-16T04:04:26;8.77;;;1.93;;
16579;SDS011;8402;51.466;6.806;2022-10-16T04:06:54;3.07;;;2.00;;
16579;SDS011;8402;51.466;6.806;2022-10-16T04:09:23;2.90;;;1.70;;
16579;SDS011;8402;51.466;6.806;2022-10-16T04:11:51;4.10;;;1.93;;
16579;SDS011;8402;51.466;6.806;2022-10-16T04:14:19;5.20;;;1.90;;
16579;SDS011;8402;51.466;6.806;2022-10-16T04:16:46;3.10;;;2.00;;
16579;SDS011;8402;51.466;6.806;2022-10-16T04:19:14;5.80;;;2.03;;
16579;SDS011;8402;51.466;6.806;2022-10-16T04:21:42;3.03;;;1.83;;
16579;SDS011;8402;51.466;6.806;2022-10-16T04:24:10;4.53;;;1.70;;
16579;SDS011;8402;51.466;6.806;2022-10-16T04:26:39;2.80;;;1.53;;
16579;SDS011;8402;51.466;6.806;2022-10-16T04:29:07;4.03;;;1.77;;
16579;SDS011;8402;51.466;6.806;2022-10-16T04:31:35;3.63;;;1.60;;
16579;SDS011;8402;51.466;6.806;2022-10-16T04:34:03;2.17;;;1.77;;
16579;SDS011;8402;51.466;6.806;2022-10-16T04:36:30;2.57;;;1.80;;
16579;SDS011;8402;51.466;6.806;2022-10-16T04:38:58;3.73;;;1.77;;
16579;SDS011;8402;51.466;6.806;2022-10-16T04:41:26;3.27;;;1.83;;
16579;SDS011;8402;51.466;6.806;2022-10-16T04:43:55;5.77;;;2.10;;
16579;SDS011;8402;51.466;6.806;2022-10-16T04:46:23;2.27;;;1.60;;
16579;SDS011;8402;51.466;6.806;2022-10-16T04:48:51;2.77;;;1.73;;
16579;SDS011;8402;51.466;6.806;2022-10-16T04:51:20;3.70;;;1.93;;
16579;SDS011;8402;51.466;6.806;2022-10-16T04:53:48;3.20;;;1.80;;
16579;SDS011;8402;51.466;6.806;2022-10-16T04:56:15;2.27;;;1.70;;
16579;SDS011;8402;51.466;6.806;2022-10-16T04:58:43;2.67;;;1.77;;
16579;SDS011;8402;51.466;6.806;2022-10-16T05:01:12;4.07;;;1.60;;
16579;SDS011;8402;51.466;6.806;2022-10-16T05:03:40;2.47;;;1.67;;
16579;SDS011;8402;51.466;6.806;2022-10-16T05:06:08;4.27;;;2.00;;
16579;SDS011;8402;51.466;6.806;2022-10-16T05:08:36;4.17;;;2.30;;
16579;SDS011;8402;51.466;6.806;2022-10-16T05:11:03;3.80;;;1.90;;
16579;SDS011;8402;51.466;6.806;2022-10-16T05:13:32;3.70;;;2.00;;
16579;SDS011;8402;51.466;6.806;2022-10-16T05:15:59;3.87;;;1.77;;
16579;SDS011;8402;51.466;6.806;2022-10-16T05:18:28;2.97;;;1.77;;
16579;SDS011;8402;51.466;6.806;2022-10-16T05:20:56;2.90;;;1.60;;
16579;SDS011;8402;51.466;6.806;2022-10-16T05:23:24;3.33;;;2.00;;
16579;SDS011;8402;51.466;6.806;2022-10-16T05:25:53;3.43;;;1.60;;
16579;SDS011;8402;51.466;6.806;2022-10-16T05:28:21;2.20;;;1.50;;
16579;SDS011;8402;51.466;6.806;2022-10-16T05:30:49;5.00;;;1.60;;
16579;SDS011;8402;51.466;6.806;2022-10-16T05:33:19;5.00;;;2.10;;
16579;SDS011;8402;51.466;6.806;2022-10-16T05:35:48;4.43;;;1.97;;
16579;SDS011;8402;51.466;6.806;2022-10-16T05:38:17;1.93;;;1.60;;
16579;SDS011;8402;51.466;6.806;2022-10-16T05:40:50;3.50;;;1.87;;
16579;SDS011;8402;51.466;6.806;2022-10-16T05:43:18;4.97;;;1.73;;
16579;SDS011;8402;51.466;6.806;2022-10-16T05:45:53;7.63;;;1.80;;
16579;SDS011;8402;51.466;6.806;2022-10-16T05:48:21;5.87;;;1.93;;
16579;SDS011;8402;51.466;6.806;2022-10-16T05:50:57;3.53;;;1.73;;
16579;SDS011;8402;51.466;6.806;2022-10-16T05:53:26;1.87;;;1.57;;
16579;SDS011;8402;51.466;6.806;2022-10-16T05:55:55;2.10;;;1.80;;
16579;SDS011;8402;51.466;6.806;2022-10-16T05:58:23;3.03;;;1.70;;
16579;SDS011;8402;51.466;6.806;2022-10-16T06:00:52;4.93;;;1.90;;
16579;SDS011;8402;51.466;6.806;2022-10-16T06:03:21;4.50;;;1.50;;
16579;SDS011;8402;51.466;6.806;2022-10-16T06:05:49;2.20;;;1.73;;
16579;SDS011;8402;51.466;6.806;2022-10-16T06:08:19;6.67;;;1.80;;
16579;SDS011;8402;51.466;6.806;2022-10-16T06:10:49;5.43;;;1.73;;
16579;SDS011;8402;51.466;6.806;2022-10-16T06:13:27;7.57;;;1.87;;
16579;SDS011;8402;51.466;6.806;2022-10-16T06:15:56;2.80;;;1.70;;
16579;SDS011;8402;51.466;6.806;2022-10-16T06:18:24;3.47;;;1.60;;
16579;SDS011;8402;51.466;6.806;2022-10-16T06:20:52;2.30;;;1.60;;
16579;SDS011;8402;51.466;6.806;2022-10-16T06:23:22;2.97;;;2.10;;
16579;SDS011;8402;51.466;6.806;2022-10-16T06:25:50;5.13;;;2.00;;
16579;SDS011;8402;51.466;6.806;2022-10-16T06:28:17;3.33;;;2.20;;
16579;SDS011;8402;51.466;6.806;2022-10-16T06:30:45;2.80;;;2.10;;
16579;SDS011;8402;51.466;6.806;2022-10-16T06:33:13;4.60;;;2.13;;
16579;SDS011;8402;51.466;6.806;2022-10-16T06:35:41;2.80;;;1.90;;
16579;SDS011;8402;51.466;6.806;2022-10-16T06:38:09;4.80;;;1.90;;
16579;SDS011;8402;51.466;6.806;2022-10-16T06:40:38;4.43;;;1.93;;
16579;SDS011;8402;51.466;6.806;2022-10-16T06:43:05;4.17;;;1.93;;
16579;SDS011;8402;51.466;6.806;2022-10-16T06:45:33;2.67;;;1.67;;
16579;SDS011;8402;51.466;6.806;2022-10-16T06:48:01;3.57;;;2.20;;
16579;SDS011;8402;51.466;6.806;2022-10-16T06:50:29;4.20;;;2.00;;
16579;SDS011;8402;51.466;6.806;2022-10-16T06:52:57;3.83;;;1.87;;
16579;SDS011;8402;51.466;6.806;2022-10-16T06:55:25;6.23;;;2.00;;
16579;SDS011;8402;51.466;6.806;2022-10-16T06:57:54;2.40;;;1.90;;
16579;SDS011;8402;51.466;6.806;2022-10-16T07:00:22;3.50;;;2.13;;
16579;SDS011;8402;51.466;6.806;2022-10-16T07:02:54;12.53;;;2.20;;
16579;SDS011;8402;51.466;6.806;2022-10-16T07:05:22;2.27;;;1.70;;
16579;SDS011;8402;51.466;6.806;2022-10-16T07:07:50;4.87;;;2.00;;
16579;SDS011;8402;51.466;6.806;2022-10-16T07:10:18;4.90;;;2.00;;
16579;SDS011;8402;51.466;6.806;2022-10-16T07:12:46;3.47;;;2.03;;
16579;SDS011;8402;51.466;6.806;2022-10-16T07:15:15;4.47;;;2.10;;
16579;SDS011;8402;51.466;6.806;2022-10-16T07:17:43;3.43;;;2.20;;
16579;SDS011;8402;51.466;6.806;2022-10-16T07:20:10;4.43;;;2.03;;
16579;SDS011;8402;51.466;6.806;2022-10-16T07:22:38;5.00;;;2.27;;
16579;SDS011;8402;51.466;6.806;2022-10-16T07:25:06;3.73;;;2.00;;
16579;SDS011;8402;51.466;6.806;2022-10-16T07:27:35;5.30;;;2.23;;
16579;SDS011;8402;51.466;6.806;2022-10-16T07:30:03;6.20;;;2.30;;
16579;SDS011;8402;51.466;6.806;2022-10-16T07:32:36;7.10;;;2.93;;
16579;SDS011;8402;51.466;6.806;2022-10-16T07:35:04;5.03;;;2.10;;
16579;SDS011;8402;51.466;6.806;2022-10-16T07:37:33;2.87;;;1.90;;
16579;SDS011;8402;51.466;6.806;2022-10-16T07:40:00;7.97;;;2.33;;
16579;SDS011;8402;51.466;6.806;2022-10-16T07:42:28;3.43;;;2.00;;
16579;SDS011;8402;51.466;6.806;2022-10-16T07:44:56;5.57;;;2.23;;
16579;SDS011;8402;51.466;6.806;2022-10-16T07:47:24;3.27;;;2.17;;
16579;SDS011;8402;51.466;6.806;2022-10-16T07:49:54;4.40;;;2.30;;
16579;SDS011;8402;51.466;6.806;2022-10-16T07:52:22;4.47;;;2.10;;
16579;SDS011;8402;51.466;6.806;2022-10-16T07:54:50;4.73;;;2.20;;
16579;SDS011;8402;51.466;6.806;2022-10-16T07:57:18;4.33;;;1.93;;
16579;SDS011;8402;51.466;6.806;2022-10-16T07:59:49;3.17;;;2.10;;
16579;SDS011;8402;51.466;6.806;2022-10-16T08:02:17;7.77;;;2.00;;
16579;SDS011;8402;51.466;6.806;2022-10-16T08:04:46;3.13;;;2.00;;
16579;SDS011;8402;51.466;6.806;2022-10-16T08:07:15;3.70;;;2.00;;
16579;SDS011;8402;51.466;6.806;2022-10-16T08:09:43;4.57;;;2.17;;
16579;SDS011;8402;51.466;6.806;2022-10-16T08:12:11;4.20;;;2.30;;
16579;SDS011;8402;51.466;6.806;2022-10-16T08:14:38;4.77;;;2.40;;
16579;SDS011;8402;51.466;6.806;2022-10-16T08:17:13;4.73;;;2.13;;
16579;SDS011;8402;51.466;6.806;2022-10-16T08:19:44;3.63;;;2.07;;
16579;SDS011;8402;51.466;6.806;2022-10-16T08:22:12;2.63;;;1.90;;
16579;SDS011;8402;51.466;6.806;2022-10-16T08:24:46;2.70;;;2.23;;
16579;SDS011;8402;51.466;6.806;2022-10-16T08:27:14;4.10;;;2.10;;
16579;SDS011;8402;51.466;6.806;2022-10-16T08:29:42;9.33;;;2.40;;
16579;SDS011;8402;51.466;6.806;2022-10-16T08:32:09;8.30;;;2.43;;
16579;SDS011;8402;51.466;6.806;2022-10-16T08:34:37;6.00;;;2.27;;
16579;SDS011;8402;51.466;6.806;2022-10-16T08:37:05;4.13;;;2.00;;
16579;SDS011;8402;51.466;6.806;2022-10-16T08:39:34;3.30;;;2.30;;
16579;SDS011;8402;51.466;6.806;2022-10-16T08:42:16;4.47;;;2.00;;
16579;SDS011;8402;51.466;6.806;2022-10-16T08:45:01;5.53;;;1.90;;
16579;SDS011;8402;51.466;6.806;2022-10-16T08:47:42;4.90;;;2.40;;
16579;SDS011;8402;51.466;6.806;2022-10-16T08:50:13;6.07;;;2.10;;
16579;SDS011;8402;51.466;6.806;2022-10-16T08:52:45;3.57;;;1.73;;
16579;SDS011;8402;51.466;6.806;2022-10-16T08:55:19;2.20;;;1.60;;
16579;SDS011;8402;51.466;6.806;2022-10-16T08:58:00;5.37;;;1.83;;
16579;SDS011;8402;51.466;6.806;2022-10-16T09:00:28;3.80;;;1.63;;
16579;SDS011;8402;51.466;6.806;2022-10-16T09:03:00;4.10;;;1.97;;
16579;SDS011;8402;51.466;6.806;2022-10-16T09:08:46;2.07;;;1.70;;
16579;SDS011;8402;51.466;6.806;2022-10-16T09:11:27;3.43;;;1.50;;
16579;SDS011;8402;51.466;6.806;2022-10-16T09:14:15;3.57;;;1.57;;
16579;SDS011;8402;51.466;6.806;2022-10-16T09:16:55;2.70;;;1.50;;
16579;SDS011;8402;51.466;6.806;2022-10-16T09:19:27;2.23;;;1.30;;
16579;SDS011;8402;51.466;6.806;2022-10-16T09:22:01;4.20;;;2.20;;
16579;SDS011;8402;51.466;6.806;2022-10-16T09:24:38;4.13;;;1.90;;
16579;SDS011;8402;51.466;6.806;2022-10-16T09:27:06;2.80;;;1.70;;
16579;SDS011;8402;51.466;6.806;2022-10-16T09:29:36;4.30;;;1.47;;
16579;SDS011;8402;51.466;6.806;2022-10-16T09:32:08;2.37;;;1.50;;
16579;SDS011;8402;51.466;6.806;2022-10-16T09:34:40;6.93;;;1.50;;
16579;SDS011;8402;51.466;6.806;2022-10-16T09:37:11;3.40;;;1.27;;
16579;SDS011;8402;51.466;6.806;2022-10-16T09:39:45;2.17;;;1.00;;
16579;SDS011;8402;51.466;6.806;2022-10-16T09:42:14;2.73;;;1.30;;
16579;SDS011;8402;51.466;6.806;2022-10-16T09:44:48;2.80;;;1.40;;
16579;SDS011;8402;51.466;6.806;2022-10-16T09:47:18;3.33;;;1.50;;
16579;SDS011;8402;51.466;6.806;2022-10-16T09:49:51;4.87;;;1.10;;
16579;SDS011;8402;51.466;6.806;2022-10-16T09:52:21;1.53;;;1.20;;
16579;SDS011;8402;51.466;6.806;2022-10-16T09:54:50;6.53;;;1.55;;
16579;SDS011;8402;51.466;6.806;2022-10-16T09:57:19;1.50;;;1.20;;
16579;SDS011;8402;51.466;6.806;2022-10-16T09:59:50;1.90;;;1.10;;
16579;SDS011;8402;51.466;6.806;2022-10-16T10:02:20;1.63;;;1.15;;
16579;SDS011;8402;51.466;6.806;2022-10-16T10:04:56;2.75;;;1.27;;
16579;SDS011;8402;51.466;6.806;2022-10-16T10:07:25;4.80;;;1.25;;
16579;SDS011;8402;51.466;6.806;2022-10-16T10:09:55;2.28;;;1.20;;
16579;SDS011;8402;51.466;6.806;2022-10-16T10:12:25;3.22;;;1.05;;
16579;SDS011;8402;51.466;6.806;2022-10-16T10:14:56;2.95;;;1.30;;
16579;SDS011;8402;51.466;6.806;2022-10-16T10:17:26;2.15;;;1.10;;
16579;SDS011;8402;51.466;6.806;2022-10-16T10:19:55;1.27;;;1.10;;
16579;SDS011;8402;51.466;6.806;2022-10-16T10:22:30;2.80;;;1.00;;
16579;SDS011;8402;51.466;6.806;2022-10-16T10:25:15;2.03;;;1.20;;
16579;SDS011;8402;51.466;6.806;2022-10-16T10:27:55;3.45;;;1.40;;
16579;SDS011;8402;51.466;6.806;2022-10-16T10:30:37;2.08;;;1.27;;
16579;SDS011;8402;51.466;6.806;2022-10-16T10:33:17;1.13;;;1.00;;
16579;SDS011;8402;51.466;6.806;2022-10-16T10:35:53;4.50;;;1.40;;
16579;SDS011;8402;51.466;6.806;2022-10-16T10:38:30;1.52;;;1.17;;
16579;SDS011;8402;51.466;6.806;2022-10-16T10:41:09;3.85;;;1.30;;
16579;SDS011;8402;51.466;6.806;2022-10-16T10:47:19;2.35;;;1.20;;
16579;SDS011;8402;51.466;6.806;2022-10-16T10:50:02;3.08;;;1.20;;
16579;SDS011;8402;51.466;6.806;2022-10-16T10:52:43;5.60;;;1.02;;
16579;SDS011;8402;51.466;6.806;2022-10-16T10:55:23;1.80;;;1.17;;
16579;SDS011;8402;51.466;6.806;2022-10-16T10:58:10;3.92;;;1.20;;
16579;SDS011;8402;51.466;6.806;2022-10-16T11:00:51;3.63;;;1.00;;
16579;SDS011;8402;51.466;6.806;2022-10-16T11:03:35;2.80;;;1.25;;
16579;SDS011;8402;51.466;6.806;2022-10-16T11:06:15;1.38;;;0.90;;
16579;SDS011;8402;51.466;6.806;2022-10-16T11:08:46;2.15;;;1.13;;
16579;SDS011;8402;51.466;6.806;2022-10-16T11:11:20;1.98;;;1.10;;
16579;SDS011;8402;51.466;6.806;2022-10-16T11:13:54;1.70;;;0.93;;
16579;SDS011;8402;51.466;6.806;2022-10-16T11:16:26;2.55;;;0.90;;
16579;SDS011;8402;51.466;6.806;2022-10-16T11:18:59;2.35;;;1.00;;
16579;SDS011;8402;51.466;6.806;2022-10-16T11:21:34;3.22;;;1.15;;
16579;SDS011;8402;51.466;6.806;2022-10-16T11:24:09;5.18;;;1.10;;
16579;SDS011;8402;51.466;6.806;2022-10-16T11:26:46;1.77;;;1.13;;
16579;SDS011;8402;51.466;6.806;2022-10-16T11:29:19;4.25;;;1.20;;
16579;SDS011;8402;51.466;6.806;2022-10-16T11:31:52;2.13;;;1.08;;
16579;SDS011;8402;51.466;6.806;2022-10-16T11:34:27;2.95;;;1.10;;
16579;SDS011;8402;51.466;6.806;2022-10-16T11:37:05;1.15;;;0.95;;
16579;SDS011;8402;51.466;6.806;2022-10-16T11:39:38;3.08;;;1.10;;
16579;SDS011;8402;51.466;6.806;2022-10-16T11:42:09;2.53;;;1.20;;
16579;SDS011;8402;51.466;6.806;2022-10-16T11:44:50;3.47;;;0.98;;
16579;SDS011;8402;51.466;6.806;2022-10-16T11:47:26;3.90;;;1.10;;
16579;SDS011;8402;51.466;6.806;2022-10-16T11:50:23;6.25;;;1.30;;
16579;SDS011;8402;51.466;6.806;2022-10-16T11:52:55;2.25;;;1.23;;
16579;SDS011;8402;51.466;6.806;2022-10-16T11:55:28;2.25;;;1.30;;
16579;SDS011;8402;51.466;6.806;2022-10-16T11:58:02;2.83;;;1.27;;
16579;SDS011;8402;51.466;6.806;2022-10-16T12:00:35;2.50;;;0.90;;
16579;SDS011;8402;51.466;6.806;2022-10-16T12:03:12;2.83;;;0.95;;
16579;SDS011;8402;51.466;6.806;2022-10-16T12:05:55;3.22;;;1.10;;
16579;SDS011;8402;51.466;6.806;2022-10-16T12:08:39;3.88;;;1.20;;
16579;SDS011;8402;51.466;6.806;2022-10-16T12:11:08;4.25;;;1.38;;
16579;SDS011;8402;51.466;6.806;2022-10-16T12:13:47;2.38;;;1.25;;
16579;SDS011;8402;51.466;6.806;2022-10-16T12:16:20;3.65;;;1.55;;
16579;SDS011;8402;51.466;6.806;2022-10-16T12:18:50;5.80;;;1.15;;
16579;SDS011;8402;51.466;6.806;2022-10-16T12:21:38;3.45;;;1.30;;
16579;SDS011;8402;51.466;6.806;2022-10-16T12:24:06;1.27;;;0.98;;
16579;SDS011;8402;51.466;6.806;2022-10-16T12:26:49;3.80;;;0.95;;
16579;SDS011;8402;51.466;6.806;2022-10-16T12:29:22;3.83;;;1.35;;
16579;SDS011;8402;51.466;6.806;2022-10-16T12:31:57;4.70;;;1.10;;
16579;SDS011;8402;51.466;6.806;2022-10-16T12:34:26;2.13;;;0.98;;
16579;SDS011;8402;51.466;6.806;2022-10-16T12:37:07;2.78;;;1.10;;
16579;SDS011;8402;51.466;6.806;2022-10-16T12:39:37;4.15;;;1.15;;
16579;SDS011;8402;51.466;6.806;2022-10-16T12:42:18;2.67;;;1.08;;
16579;SDS011;8402;51.466;6.806;2022-10-16T12:44:48;1.75;;;1.00;;
16579;SDS011;8402;51.466;6.806;2022-10-16T12:47:20;2.75;;;1.10;;
16579;SDS011;8402;51.466;6.806;2022-10-16T12:49:51;1.52;;;0.88;;
16579;SDS011;8402;51.466;6.806;2022-10-16T12:52:28;3.22;;;0.90;;
16579;SDS011;8402;51.466;6.806;2022-10-16T12:55:02;2.88;;;1.10;;
16579;SDS011;8402;51.466;6.806;2022-10-16T12:57:35;5.45;;;1.13;;
16579;SDS011;8402;51.466;6.806;2022-10-16T13:00:13;2.33;;;1.08;;
16579;SDS011;8402;51.466;6.806;2022-10-16T13:02:56;2.55;;;1.30;;
16579;SDS011;8402;51.466;6.806;2022-10-16T13:05:43;1.48;;;1.00;;
16579;SDS011;8402;51.466;6.806;2022-10-16T13:08:41;4.13;;;1.25;;
16579;SDS011;8402;51.466;6.806;2022-10-16T13:11:24;2.58;;;1.17;;
16579;SDS011;8402;51.466;6.806;2022-10-16T13:14:17;3.83;;;1.77;;
16579;SDS011;8402;51.466;6.806;2022-10-16T13:16:56;4.22;;;1.98;;
16579;SDS011;8402;51.466;6.806;2022-10-16T13:19:33;4.53;;;1.80;;
16579;SDS011;8402;51.466;6.806;2022-10-16T13:22:12;2.70;;;1.40;;
16579;SDS011;8402;51.466;6.806;2022-10-16T13:24:51;2.78;;;1.30;;
16579;SDS011;8402;51.466;6.806;2022-10-16T13:27:29;4.72;;;1.52;;
16579;SDS011;8402;51.466;6.806;2022-10-16T13:30:09;4.53;;;1.98;;
16579;SDS011;8402;51.466;6.806;2022-10-16T13:32:43;4.28;;;1.90;;
16579;SDS011;8402;51.466;6.806;2022-10-16T13:35:21;4.43;;;2.08;;
16579;SDS011;8402;51.466;6.806;2022-10-16T13:37:50;4.50;;;1.80;;
16579;SDS011;8402;51.466;6.806;2022-10-16T13:40:21;2.25;;;1.42;;
16579;SDS011;8402;51.466;6.806;2022-10-16T13:42:51;3.08;;;1.58;;
16579;SDS011;8402;51.466;6.806;2022-10-16T13:45:21;3.58;;;1.40;;
16579;SDS011;8402;51.466;6.806;2022-10-16T13:48:00;2.88;;;1.20;;
16579;SDS011;8402;51.466;6.806;2022-10-16T13:50:29;3.67;;;1.42;;
16579;SDS011;8402;51.466;6.806;2022-10-16T13:53:03;2.35;;;1.30;;
16579;SDS011;8402;51.466;6.806;2022-10-16T13:55:33;5.18;;;1.33;;
16579;SDS011;8402;51.466;6.806;2022-10-16T13:58:05;3.60;;;1.30;;
16579;SDS011;8402;51.466;6.806;2022-10-16T14:00:34;2.83;;;1.10;;
16579;SDS011;8402;51.466;6.806;2022-10-16T14:03:12;3.85;;;1.23;;
16579;SDS011;8402;51.466;6.806;2022-10-16T14:05:42;3.45;;;1.27;;
16579;SDS011;8402;51.466;6.806;2022-10-16T14:08:15;1.88;;;0.95;;
16579;SDS011;8402;51.466;6.806;2022-10-16T14:10:48;2.40;;;0.90;;
16579;SDS011;8402;51.466;6.806;2022-10-16T14:13:18;3.13;;;1.08;;
16579;SDS011;8402;51.466;6.806;2022-10-16T14:15:57;2.28;;;1.10;;
16579;SDS011;8402;51.466;6.806;2022-10-16T14:18:29;1.27;;;0.80;;
16579;SDS011;8402;51.466;6.806;2022-10-16T14:21:04;3.35;;;0.90;;
16579;SDS011;8402;51.466;6.806;2022-10-16T14:23:35;4.82;;;0.90;;
16579;SDS011;8402;51.466;6.806;2022-10-16T14:26:13;1.88;;;0.95;;
16579;SDS011;8402;51.466;6.806;2022-10-16T14:28:43;2.63;;;0.98;;
16579;SDS011;8402;51.466;6.806;2022-10-16T14:31:25;3.35;;;1.20;;
16579;SDS011;8402;51.466;6.806;2022-10-16T14:33:55;2.45;;;1.00;;
16579;SDS011;8402;51.466;6.806;2022-10-16T14:36:23;3.85;;;0.90;;
16579;SDS011;8402;51.466;6.806;2022-10-16T14:38:56;3.88;;;1.13;;
16579;SDS011;8402;51.466;6.806;2022-10-16T14:41:29;4.07;;;0.93;;
16579;SDS011;8402;51.466;6.806;2022-10-16T14:44:00;2.63;;;0.82;;
16579;SDS011;8402;51.466;6.806;2022-10-16T14:46:31;3.22;;;1.05;;
16579;SDS011;8402;51.466;6.806;2022-10-16T14:49:03;3.83;;;0.88;;
16579;SDS011;8402;51.466;6.806;2022-10-16T14:51:41;4.88;;;1.00;;
16579;SDS011;8402;51.466;6.806;2022-10-16T14:54:11;2.20;;;0.90;;
16579;SDS011;8402;51.466;6.806;2022-10-16T14:56:45;3.35;;;1.30;;
16579;SDS011;8402;51.466;6.806;2022-10-16T14:59:16;5.55;;;1.08;;
16579;SDS011;8402;51.466;6.806;2022-10-16T15:01:49;4.90;;;1.50;;
16579;SDS011;8402;51.466;6.806;2022-10-16T15:04:18;3.25;;;1.35;;
16579;SDS011;8402;51.466;6.806;2022-10-16T15:06:45;2.88;;;1.23;;
16579;SDS011;8402;51.466;6.806;2022-10-16T15:09:13;5.97;;;1.30;;
16579;SDS011;8402;51.466;6.806;2022-10-16T15:11:41;5.63;;;1.10;;
16579;SDS011;8402;51.466;6.806;2022-10-16T15:14:12;3.22;;;1.23;;
16579;SDS011;8402;51.466;6.806;2022-10-16T15:16:45;2.83;;;1.20;;
16579;SDS011;8402;51.466;6.806;2022-10-16T15:19:13;3.05;;;1.30;;
16579;SDS011;8402;51.466;6.806;2022-10-16T15:21:41;4.00;;;1.15;;
16579;SDS011;8402;51.466;6.806;2022-10-16T15:24:11;1.55;;;1.10;;
16579;SDS011;8402;51.466;6.806;2022-10-16T15:26:46;4.20;;;1.20;;
16579;SDS011;8402;51.466;6.806;2022-10-16T15:29:16;3.30;;;1.20;;
16579;SDS011;8402;51.466;6.806;2022-10-16T15:31:44;2.67;;;1.02;;
16579;SDS011;8402;51.466;6.806;2022-10-16T15:34:13;2.13;;;1.20;;
16579;SDS011;8402;51.466;6.806;2022-10-16T15:36:41;3.17;;;1.20;;